Time;durP1;ratioP1;P1;durP2;ratioP2;P2;SDS_P1;SDS_P2;PMS_P1;PMS_P2;Temp;Humidity;BMP_temperature;BMP_pressure;BME280_temperature;BME280_humidity;BME280_pressure;Samples;Min_cycle;Max_cycle;Signal;HPM_P1;HPM_P2
2022/01/03 00:01:04;;;;;;;3.85;2.30;;;10.60;99.90;;;;;;5070250;28;20550;-72
2022/01/03 00:03:31;;;;;;;2.38;1.45;;;10.60;99.90;;;;;;5070567;28;20231;-73
2022/01/03 00:05:59;;;;;;;2.40;1.55;;;10.60;99.90;;;;;;5070395;28;20200;-72
2022/01/03 00:08:26;;;;;;;2.47;1.83;;;10.60;99.90;;;;;;5070218;28;20220;-73
2022/01/03 00:10:53;;;;;;;4.45;2.13;;;10.60;99.90;;;;;;5069895;28;20299;-72
2022/01/03 00:13:21;;;;;;;2.30;1.67;;;10.60;99.90;;;;;;5070057;28;20552;-73
2022/01/03 00:15:47;;;;;;;3.65;1.75;;;10.80;99.90;;;;;;5070167;28;20695;-73
2022/01/03 00:18:14;;;;;;;4.03;1.63;;;10.90;99.90;;;;;;5070369;28;20207;-72
2022/01/03 00:20:46;;;;;;;4.28;1.83;;;11.00;99.90;;;;;;5072999;28;20303;-72
2022/01/03 00:23:16;;;;;;;4.93;2.20;;;11.10;99.90;;;;;;5069997;28;20216;-73
2022/01/03 00:25:51;;;;;;;6.75;2.28;;;11.10;99.90;;;;;;5070416;28;20212;-72
2022/01/03 00:28:23;;;;;;;2.78;1.50;;;11.20;99.90;;;;;;5070027;28;20200;-72
2022/01/03 00:30:54;;;;;;;3.08;1.52;;;11.20;99.90;;;;;;5070292;28;20223;-73
2022/01/03 00:33:22;;;;;;;2.67;1.55;;;11.20;99.90;;;;;;5070014;28;20220;-72
2022/01/03 00:35:54;;;;;;;4.07;2.60;;;11.20;99.90;;;;;;5073919;28;20204;-73
2022/01/03 00:38:23;;;;;;;3.97;1.52;;;11.20;99.90;;;;;;5073577;28;20582;-73
2022/01/03 00:40:50;;;;;;;4.53;1.92;;;11.20;99.90;;;;;;5073644;28;20212;-72
2022/01/03 00:43:17;;;;;;;3.38;1.95;;;11.20;99.90;;;;;;5073207;28;20589;-72
2022/01/03 00:45:44;;;;;;;4.78;1.83;;;11.20;99.90;;;;;;5073907;28;20337;-72
2022/01/03 00:48:12;;;;;;;4.72;2.22;;;11.20;99.90;;;;;;5073263;28;20200;-72
2022/01/03 00:50:40;;;;;;;3.95;1.50;;;11.20;99.90;;;;;;5073681;28;20215;-72
2022/01/03 00:53:06;;;;;;;3.78;1.80;;;11.20;99.90;;;;;;5072923;28;20200;-72
2022/01/03 00:55:35;;;;;;;2.63;1.60;;;11.10;99.90;;;;;;5073736;28;20200;-72
2022/01/03 00:58:07;;;;;;;4.70;1.70;;;11.10;99.90;;;;;;5073122;28;20196;-73
2022/01/03 01:00:37;;;;;;;1.45;1.35;;;11.10;99.90;;;;;;5073581;28;20204;-72
2022/01/03 01:03:09;;;;;;;5.57;1.98;;;11.10;99.90;;;;;;5072831;28;20733;-73
2022/01/03 01:05:37;;;;;;;4.25;2.00;;;11.10;99.90;;;;;;5073414;28;20210;-72
2022/01/03 01:08:05;;;;;;;2.38;1.80;;;11.10;99.90;;;;;;5073179;28;20204;-72
2022/01/03 01:10:36;;;;;;;3.30;1.75;;;11.10;99.90;;;;;;5073116;28;20272;-72
2022/01/03 01:13:04;;;;;;;4.85;1.83;;;11.20;99.90;;;;;;5072679;28;20211;-72
2022/01/03 01:15:31;;;;;;;2.33;1.25;;;11.10;99.90;;;;;;5073057;28;20197;-72
2022/01/03 01:17:59;;;;;;;3.38;1.85;;;11.10;99.90;;;;;;5073132;28;20573;-72
2022/01/03 01:20:26;;;;;;;6.18;2.30;;;11.10;99.90;;;;;;5072758;28;20274;-72
2022/01/03 01:22:53;;;;;;;2.30;1.48;;;11.00;99.90;;;;;;5072550;28;20211;-72
2022/01/03 01:27:46;;;;;;;3.47;1.63;;;11.00;99.90;;;;;;5072697;28;20212;-73
2022/01/03 01:28:16;;;;;;;4.78;1.95;;;11.00;99.90;;;;;;5072635;28;20287;-72
2022/01/03 01:30:44;;;;;;;4.63;2.10;;;11.00;99.90;;;;;;5072658;28;20315;-72
2022/01/03 01:33:13;;;;;;;3.85;1.55;;;11.00;99.90;;;;;;5072601;28;20208;-72
2022/01/03 01:35:43;;;;;;;2.78;1.73;;;11.00;99.90;;;;;;5072859;28;20496;-72
2022/01/03 01:38:12;;;;;;;3.95;1.70;;;11.00;99.90;;;;;;5072549;28;20200;-73
2022/01/03 01:40:45;;;;;;;3.70;1.75;;;11.00;99.90;;;;;;5072765;28;20667;-73
2022/01/03 01:43:12;;;;;;;3.88;1.85;;;11.10;99.90;;;;;;5072067;28;20645;-73
2022/01/03 01:45:43;;;;;;;3.63;2.00;;;11.00;99.90;;;;;;5072820;28;20284;-72
2022/01/03 01:48:12;;;;;;;3.65;1.60;;;10.90;99.90;;;;;;5072324;28;20632;-73
2022/01/03 01:50:41;;;;;;;2.58;1.45;;;10.90;99.90;;;;;;5072408;28;20278;-73
2022/01/03 01:53:08;;;;;;;3.10;1.98;;;10.90;99.90;;;;;;5071889;28;20611;-72
2022/01/03 01:55:37;;;;;;;3.95;1.67;;;10.90;99.90;;;;;;5072612;28;20205;-73
2022/01/03 01:58:06;;;;;;;4.93;2.10;;;10.90;99.90;;;;;;5072306;28;20605;-72
2022/01/03 02:00:34;;;;;;;3.58;1.67;;;10.90;99.90;;;;;;5072857;28;20200;-73
2022/01/03 02:03:20;;;;;;;4.28;1.80;;;10.90;99.90;;;;;;5071265;28;20203;-73
2022/01/03 02:05:56;;;;;;;4.10;1.70;;;10.80;99.90;;;;;;5072364;28;20204;-72
2022/01/03 02:08:28;;;;;;;2.78;1.73;;;10.80;99.90;;;;;;5071677;28;20211;-73
2022/01/03 02:11:02;;;;;;;2.85;1.65;;;10.80;99.90;;;;;;5071674;28;20231;-72
2022/01/03 02:13:29;;;;;;;3.65;1.65;;;10.80;99.90;;;;;;5071843;28;20231;-73
2022/01/03 02:16:03;;;;;;;4.72;2.20;;;10.80;99.90;;;;;;5071996;28;20204;-73
2022/01/03 02:18:32;;;;;;;3.90;1.50;;;10.80;99.90;;;;;;5072002;28;20562;-72
2022/01/03 02:21:04;;;;;;;3.90;1.75;;;10.80;99.90;;;;;;5071163;28;20204;-73
2022/01/03 02:23:31;;;;;;;6.35;2.15;;;10.70;99.90;;;;;;5071712;28;20216;-73
2022/01/03 02:25:58;;;;;;;5.68;2.25;;;10.70;99.90;;;;;;5071675;28;20208;-73
2022/01/03 02:28:24;;;;;;;4.07;1.65;;;10.60;99.90;;;;;;5071517;28;20208;-73
2022/01/03 02:30:53;;;;;;;2.55;2.10;;;10.60;99.90;;;;;;5071047;28;20703;-72
2022/01/03 02:33:20;;;;;;;3.75;2.20;;;10.60;99.90;;;;;;5071667;28;20231;-73
2022/01/03 02:35:47;;;;;;;2.70;1.58;;;10.70;99.90;;;;;;5071491;28;20200;-72
2022/01/03 02:38:16;;;;;;;3.42;1.85;;;10.70;99.90;;;;;;5071223;28;20200;-72
2022/01/03 02:40:43;;;;;;;4.03;1.80;;;10.60;99.90;;;;;;5071235;28;20197;-72
2022/01/03 02:43:10;;;;;;;5.03;1.83;;;10.60;99.90;;;;;;5070870;28;20211;-72
2022/01/03 02:45:37;;;;;;;3.83;2.00;;;10.50;99.90;;;;;;5071664;28;20196;-73
2022/01/03 02:48:07;;;;;;;2.55;1.60;;;10.60;99.90;;;;;;5071292;28;20205;-73
2022/01/03 02:50:35;;;;;;;4.72;1.95;;;10.60;99.90;;;;;;5085622;22;20252;-89
2022/01/03 02:53:02;;;;;;;4.70;2.00;;;10.60;99.90;;;;;;5054274;28;20200;-91
2022/01/03 02:55:31;;;;;;;4.65;2.72;;;10.60;99.90;;;;;;5055008;28;20201;-90
2022/01/03 02:58:06;;;;;;;3.58;1.70;;;10.60;99.90;;;;;;5054144;28;20568;-91
2022/01/03 03:00:35;;;;;;;5.60;2.20;;;10.60;99.90;;;;;;5062359;28;20224;-91
2022/01/03 03:03:03;;;;;;;3.63;2.15;;;10.60;99.90;;;;;;5078347;28;20211;-91
2022/01/03 03:05:30;;;;;;;3.00;1.33;;;10.60;99.90;;;;;;5080664;28;20200;-91
2022/01/03 03:07:57;;;;;;;4.57;1.88;;;10.50;99.90;;;;;;5073842;28;20207;-91
2022/01/03 03:10:26;;;;;;;1.90;1.48;;;10.50;99.90;;;;;;5073540;28;20485;-91
2022/01/03 03:12:55;;;;;;;2.83;2.10;;;10.50;99.90;;;;;;5073819;28;20192;-91
2022/01/03 03:15:22;;;;;;;3.35;1.75;;;10.50;99.90;;;;;;5074050;28;20204;-91
2022/01/03 03:17:49;;;;;;;1.73;1.63;;;10.50;99.90;;;;;;5073837;28;20204;-91
2022/01/03 03:20:17;;;;;;;6.03;1.67;;;10.50;99.90;;;;;;5073720;28;20224;-90
2022/01/03 03:22:49;;;;;;;3.80;1.85;;;10.40;99.90;;;;;;5073745;28;20223;-90
2022/01/03 03:25:18;;;;;;;3.97;2.53;;;10.40;99.90;;;;;;5073858;28;20196;-90
2022/01/03 03:27:47;;;;;;;3.30;2.00;;;10.40;99.90;;;;;;5074469;28;20298;-91
2022/01/03 03:30:18;;;;;;;4.57;1.90;;;10.40;99.90;;;;;;5076504;28;20232;-91
2022/01/03 03:32:47;;;;;;;3.00;1.90;;;10.40;99.90;;;;;;5074695;28;20231;-91
2022/01/03 03:35:14;;;;;;;3.20;1.70;;;10.30;99.90;;;;;;5073511;28;20220;-91
2022/01/03 03:37:40;;;;;;;3.05;1.45;;;10.30;99.90;;;;;;5073731;28;20220;-91
2022/01/03 03:40:08;;;;;;;2.28;1.52;;;10.30;99.90;;;;;;5073517;28;20231;-90
2022/01/03 03:42:35;;;;;;;4.18;1.80;;;10.30;99.90;;;;;;5073419;28;20215;-90
2022/01/03 03:45:03;;;;;;;4.75;1.60;;;10.30;99.90;;;;;;5073333;28;20207;-91
2022/01/03 03:47:31;;;;;;;4.13;1.88;;;10.30;99.90;;;;;;5072837;28;20196;-91
2022/01/03 03:49:58;;;;;;;6.50;1.80;;;10.20;99.90;;;;;;5072725;28;20682;-90
2022/01/03 03:52:26;;;;;;;4.38;1.90;;;10.20;99.90;;;;;;5072615;28;20209;-90
2022/01/03 03:54:53;;;;;;;6.63;2.45;;;10.20;99.90;;;;;;5072739;28;20207;-91
2022/01/03 03:57:20;;;;;;;1.95;1.30;;;10.10;99.90;;;;;;5073120;28;20603;-91
2022/01/03 03:59:47;;;;;;;1.52;1.30;;;10.10;99.90;;;;;;5073329;28;20676;-91
2022/01/03 04:02:13;;;;;;;3.90;1.90;;;10.10;99.90;;;;;;5073590;28;20196;-91
2022/01/03 04:04:42;;;;;;;1.65;1.50;;;10.00;99.90;;;;;;5073979;28;20196;-91
2022/01/03 04:07:09;;;;;;;2.85;1.77;;;10.00;99.90;;;;;;5073893;28;20200;-91
2022/01/03 04:09:35;;;;;;;4.45;1.80;;;10.00;99.90;;;;;;5075588;28;20228;-91
2022/01/03 04:12:03;;;;;;;3.45;1.88;;;10.00;99.90;;;;;;5077481;28;20246;-93
2022/01/03 04:14:30;;;;;;;3.40;1.90;;;10.00;99.90;;;;;;5078059;28;20223;-92
2022/01/03 04:16:57;;;;;;;5.72;2.20;;;10.00;99.90;;;;;;5078500;28;20200;-91
2022/01/03 04:19:23;;;;;;;2.72;1.45;;;10.00;99.90;;;;;;5078012;28;20572;-91
2022/01/03 04:21:52;;;;;;;3.28;1.63;;;10.00;99.90;;;;;;5077681;28;20235;-91
2022/01/03 04:24:19;;;;;;;4.28;2.33;;;10.00;99.90;;;;;;5077145;28;20204;-91
2022/01/03 04:26:49;;;;;;;4.53;1.73;;;10.00;99.90;;;;;;5077910;28;20212;-91
2022/01/03 04:29:16;;;;;;;5.15;1.77;;;9.90;99.90;;;;;;5077236;28;20258;-92
2022/01/03 04:31:43;;;;;;;6.38;2.10;;;10.00;99.90;;;;;;5076865;28;20228;-92
2022/01/03 04:34:10;;;;;;;6.18;1.73;;;9.90;99.90;;;;;;5076452;28;20202;-91
2022/01/03 04:36:37;;;;;;;3.08;1.60;;;9.90;99.90;;;;;;5065680;28;20189;-91
2022/01/03 04:39:06;;;;;;;3.42;1.80;;;9.90;99.90;;;;;;5071313;28;20207;-91
2022/01/03 04:41:33;;;;;;;4.00;1.80;;;9.90;99.90;;;;;;5076119;28;20697;-92
2022/01/03 04:44:07;;;;;;;4.65;1.95;;;10.00;99.90;;;;;;5077757;28;20200;-92
2022/01/03 04:46:34;;;;;;;3.97;1.92;;;9.90;99.90;;;;;;5079026;28;20291;-91
2022/01/03 04:49:01;;;;;;;4.50;2.10;;;10.00;99.90;;;;;;5078016;28;20197;-92
2022/01/03 04:51:28;;;;;;;3.72;2.05;;;10.10;99.90;;;;;;5077934;28;20232;-90
2022/01/03 04:53:55;;;;;;;5.05;2.20;;;10.10;99.90;;;;;;5077946;28;20204;-91
2022/01/03 04:56:23;;;;;;;5.25;1.80;;;10.10;99.90;;;;;;5077777;28;20270;-92
2022/01/03 04:58:50;;;;;;;5.30;1.73;;;10.10;99.90;;;;;;5074148;28;20204;-91
2022/01/03 05:01:17;;;;;;;2.75;1.60;;;10.20;99.90;;;;;;5076277;28;20224;-92
2022/01/03 05:03:44;;;;;;;3.70;1.70;;;10.30;99.90;;;;;;5077341;28;20211;-92
2022/01/03 05:06:12;;;;;;;3.25;1.70;;;10.30;99.90;;;;;;5078465;28;20680;-92
2022/01/03 05:08:41;;;;;;;5.30;1.83;;;10.30;99.90;;;;;;5078315;28;20291;-93
2022/01/03 05:11:08;;;;;;;4.30;2.13;;;10.20;99.90;;;;;;5078560;28;20224;-92
2022/01/03 05:13:39;;;;;;;3.97;1.65;;;10.20;99.90;;;;;;5081509;28;20640;-93
2022/01/03 05:16:09;;;;;;;4.50;2.00;;;10.20;99.90;;;;;;5083502;28;20469;-93
2022/01/03 05:18:37;;;;;;;7.78;2.05;;;10.20;99.90;;;;;;5082470;28;20212;-91
2022/01/03 05:21:04;;;;;;;3.50;1.98;;;10.20;99.90;;;;;;5081222;28;20216;-92
2022/01/03 05:23:31;;;;;;;4.28;2.00;;;10.20;99.90;;;;;;5079908;28;20207;-91
2022/01/03 05:25:58;;;;;;;2.70;1.88;;;10.20;99.90;;;;;;5082186;28;20204;-92
2022/01/03 05:28:25;;;;;;;3.42;1.75;;;10.10;99.90;;;;;;5081196;28;20208;-91
2022/01/03 05:30:53;;;;;;;4.07;1.90;;;10.20;99.90;;;;;;5081573;28;20231;-92
2022/01/03 05:33:20;;;;;;;6.80;2.20;;;10.10;99.90;;;;;;5082304;28;20295;-92
2022/01/03 05:35:47;;;;;;;7.15;2.13;;;10.10;99.90;;;;;;5082638;28;20199;-91
2022/01/03 05:38:14;;;;;;;2.42;1.73;;;10.20;99.90;;;;;;5082693;28;20209;-92
2022/01/03 05:40:41;;;;;;;5.80;1.58;;;10.20;99.90;;;;;;5083974;28;20248;-92
2022/01/03 05:43:10;;;;;;;8.93;2.35;;;10.10;99.90;;;;;;5082684;28;20291;-91
2022/01/03 05:45:37;;;;;;;4.30;1.35;;;10.10;99.90;;;;;;5083343;28;20209;-92
2022/01/03 05:48:06;;;;;;;3.88;1.50;;;10.10;99.90;;;;;;5081031;28;20211;-91
2022/01/03 05:50:33;;;;;;;3.15;1.40;;;10.10;99.90;;;;;;5080566;28;20228;-92
2022/01/03 05:53:00;;;;;;;7.25;2.50;;;10.10;99.90;;;;;;5080936;28;20218;-92
2022/01/03 05:55:27;;;;;;;4.00;1.95;;;10.10;99.90;;;;;;5080681;28;20643;-91
2022/01/03 05:57:55;;;;;;;6.75;2.33;;;10.10;99.90;;;;;;5082345;28;20215;-93
2022/01/03 06:00:24;;;;;;;5.90;2.00;;;10.10;99.90;;;;;;5083292;28;20700;-92
2022/01/03 06:02:55;;;;;;;5.15;1.70;;;10.20;99.90;;;;;;5083560;28;20300;-92
2022/01/03 06:11:14;;;;;;;4.72;2.30;;;10.20;99.90;;;;;;5073980;22;20229;-70
2022/01/03 06:13:41;;;;;;;4.30;1.90;;;10.20;99.90;;;;;;5051954;28;20217;-71
2022/01/03 06:16:08;;;;;;;4.38;1.80;;;10.10;99.90;;;;;;5052191;28;20223;-70
2022/01/03 06:18:35;;;;;;;4.65;1.70;;;10.10;99.90;;;;;;5051688;28;20204;-70
2022/01/03 06:21:03;;;;;;;4.22;1.75;;;10.10;99.90;;;;;;5051598;28;20193;-71
2022/01/03 06:23:30;;;;;;;3.42;1.95;;;10.10;99.90;;;;;;5051839;28;20586;-71
2022/01/03 06:25:56;;;;;;;5.22;2.47;;;10.10;99.90;;;;;;5051771;28;20204;-70
2022/01/03 06:28:23;;;;;;;4.25;1.90;;;10.00;99.90;;;;;;5051554;28;20205;-72
2022/01/03 06:30:50;;;;;;;3.80;1.70;;;10.00;99.90;;;;;;5051404;28;20593;-71
2022/01/03 06:33:16;;;;;;;8.57;2.33;;;10.00;99.90;;;;;;5050601;28;20220;-71
2022/01/03 06:35:43;;;;;;;5.28;1.95;;;9.90;99.90;;;;;;5051645;28;20201;-71
2022/01/03 06:38:11;;;;;;;5.63;2.03;;;9.90;99.90;;;;;;5051476;28;20208;-71
2022/01/03 06:40:38;;;;;;;5.05;2.00;;;9.90;99.90;;;;;;5051771;28;20621;-71
2022/01/03 06:43:05;;;;;;;6.97;2.13;;;9.90;99.90;;;;;;5050989;28;20228;-71
2022/01/03 06:45:31;;;;;;;3.80;1.67;;;9.90;99.90;;;;;;5051563;28;20204;-71
2022/01/03 06:47:58;;;;;;;3.85;1.60;;;9.80;99.90;;;;;;5051649;28;20205;-71
2022/01/03 06:50:25;;;;;;;3.70;1.83;;;9.90;99.90;;;;;;5051258;28;20205;-71
2022/01/03 06:52:52;;;;;;;4.57;1.55;;;9.80;99.90;;;;;;5050717;28;20208;-71
2022/01/03 06:55:20;;;;;;;3.35;1.63;;;9.80;99.90;;;;;;5051504;28;20212;-71
2022/01/03 06:57:47;;;;;;;6.88;2.20;;;9.80;99.90;;;;;;5051153;28;20208;-71
2022/01/03 07:00:15;;;;;;;5.20;1.88;;;9.70;99.90;;;;;;5051625;28;20308;-71
2022/01/03 07:02:42;;;;;;;8.52;2.00;;;9.70;99.90;;;;;;5050594;28;20211;-71
2022/01/03 07:05:10;;;;;;;7.10;2.00;;;9.80;99.90;;;;;;5051126;28;20224;-71
2022/01/03 07:07:36;;;;;;;5.13;3.17;;;9.70;99.90;;;;;;5050867;28;20208;-71
2022/01/03 07:10:04;;;;;;;2.25;1.65;;;9.70;99.90;;;;;;5051057;28;20572;-71
2022/01/03 07:12:32;;;;;;;4.95;2.25;;;9.60;99.90;;;;;;5050334;28;20227;-71
2022/01/03 07:20:28;;;;;;;3.58;2.05;;;9.60;99.90;;;;;;5051000;28;20679;-71
2022/01/03 07:22:54;;;;;;;2.45;1.77;;;9.60;99.90;;;;;;5050117;28;20204;-71
2022/01/03 07:25:21;;;;;;;5.10;2.33;;;9.60;99.90;;;;;;5051081;28;20208;-71
2022/01/03 07:27:49;;;;;;;5.10;2.10;;;9.60;99.90;;;;;;5050432;28;20635;-71
2022/01/03 07:30:16;;;;;;;3.08;1.75;;;9.60;99.90;;;;;;5050866;28;20201;-71
2022/01/03 07:32:43;;;;;;;4.85;1.80;;;9.60;99.90;;;;;;5049889;28;20730;-71
2022/01/03 07:35:13;;;;;;;4.05;1.67;;;9.70;99.90;;;;;;5050666;28;20259;-71
2022/01/03 07:37:40;;;;;;;4.78;1.95;;;9.60;99.90;;;;;;5050451;28;20223;-71
2022/01/03 07:40:08;;;;;;;3.88;1.65;;;9.60;99.90;;;;;;5050726;28;20196;-71
2022/01/03 07:42:34;;;;;;;6.20;2.13;;;9.60;99.90;;;;;;5049612;28;20224;-71
2022/01/03 07:45:03;;;;;;;5.65;1.95;;;9.60;99.90;;;;;;5050523;28;20220;-71
2022/01/03 07:47:29;;;;;;;8.73;2.00;;;9.60;99.90;;;;;;5050297;28;20205;-71
2022/01/03 07:49:56;;;;;;;2.38;1.55;;;9.60;99.90;;;;;;5050494;28;20208;-71
2022/01/03 07:52:23;;;;;;;4.75;2.00;;;9.60;99.90;;;;;;5049983;28;20228;-71
2022/01/03 07:54:52;;;;;;;7.15;1.95;;;9.60;99.90;;;;;;5050265;28;20217;-71
2022/01/03 07:57:18;;;;;;;3.88;1.92;;;9.60;99.90;;;;;;5050476;28;20219;-71
2022/01/03 07:59:46;;;;;;;5.07;1.92;;;9.60;99.90;;;;;;5050241;28;20200;-71
2022/01/03 08:02:14;;;;;;;5.10;2.05;;;9.60;99.90;;;;;;5050056;28;20574;-71
2022/01/03 08:04:41;;;;;;;5.78;2.00;;;9.60;99.90;;;;;;5050168;28;20233;-71
2022/01/03 08:07:08;;;;;;;6.65;1.80;;;9.50;99.90;;;;;;5050514;28;20208;-71
2022/01/03 08:09:35;;;;;;;3.05;1.90;;;9.50;99.90;;;;;;5050244;28;20581;-71
2022/01/03 08:12:02;;;;;;;3.55;2.00;;;9.50;99.90;;;;;;5049596;28;20221;-71
2022/01/03 08:14:28;;;;;;;5.13;2.30;;;9.50;99.90;;;;;;5050178;28;20642;-71
2022/01/03 08:16:55;;;;;;;6.28;2.25;;;9.50;99.90;;;;;;5049962;28;20229;-72
2022/01/03 08:19:23;;;;;;;2.78;1.55;;;9.50;99.90;;;;;;5050175;28;20201;-71
2022/01/03 08:21:50;;;;;;;4.63;1.80;;;9.50;99.90;;;;;;5049887;28;20197;-71
2022/01/03 08:24:17;;;;;;;3.22;1.80;;;9.50;99.90;;;;;;5050329;28;20217;-71
2022/01/03 08:26:44;;;;;;;2.10;1.70;;;9.50;99.90;;;;;;5050077;28;20204;-71
2022/01/03 08:29:11;;;;;;;6.50;1.77;;;9.50;99.90;;;;;;5050728;28;20207;-71
2022/01/03 08:31:38;;;;;;;3.75;1.90;;;9.50;99.90;;;;;;5049390;28;20220;-71
2022/01/03 08:34:05;;;;;;;4.78;1.80;;;9.50;99.90;;;;;;5050145;28;20225;-71
2022/01/03 08:36:34;;;;;;;4.53;1.60;;;9.60;99.90;;;;;;5049989;28;20204;-71
2022/01/03 08:39:00;;;;;;;4.25;1.85;;;9.70;99.90;;;;;;5049948;28;20207;-71
2022/01/03 08:41:27;;;;;;;6.28;1.70;;;9.70;99.90;;;;;;5049834;28;20197;-70
2022/01/03 08:43:54;;;;;;;4.95;2.03;;;9.80;99.90;;;;;;5049898;28;20742;-70
2022/01/03 08:46:23;;;;;;;2.90;1.50;;;9.90;99.90;;;;;;5049956;28;20212;-70
2022/01/03 08:48:50;;;;;;;5.53;2.10;;;9.90;99.90;;;;;;5049809;28;20668;-70
2022/01/03 08:57:19;;;;;;;5.57;1.73;;;10.10;99.90;;;;;;5082649;28;20201;-93
2022/01/03 09:05:10;;;;;;;3.85;2.30;;;10.30;99.90;;;;;;5066181;28;20219;-92
2022/01/03 09:13:53;;;;;;;4.90;1.50;;;10.40;99.90;;;;;;5076550;28;20235;-92
2022/01/03 09:22:30;;;;;;;5.03;1.58;;;10.60;99.90;;;;;;5069940;28;20204;-91
2022/01/03 09:30:24;;;;;;;4.53;1.50;;;10.60;99.90;;;;;;5063571;28;20201;-92
2022/01/03 09:32:51;;;;;;;4.15;1.70;;;10.70;99.90;;;;;;5061905;28;20228;-91
2022/01/03 09:35:19;;;;;;;3.85;1.80;;;10.60;99.90;;;;;;5061043;28;20232;-91
2022/01/03 09:55:33;;;;;;;6.03;1.80;;;10.50;99.90;;;;;;5068215;28;20248;-91
2022/01/03 10:15:01;;;;;;;3.25;1.75;;;10.60;99.90;;;;;;5074989;22;20239;-71
2022/01/03 10:17:27;;;;;;;3.67;2.33;;;10.70;99.90;;;;;;5051788;28;20300;-71
2022/01/03 10:19:56;;;;;;;3.55;1.63;;;10.70;99.90;;;;;;5051519;28;20205;-72
2022/01/03 10:22:25;;;;;;;5.40;2.03;;;10.70;99.90;;;;;;5051565;28;20197;-71
2022/01/03 10:24:52;;;;;;;5.95;1.80;;;10.70;99.90;;;;;;5051848;28;20224;-71
2022/01/03 10:27:20;;;;;;;3.83;2.10;;;10.70;99.90;;;;;;5051945;28;20197;-71
2022/01/03 10:29:55;;;;;;;4.82;1.73;;;10.70;99.90;;;;;;5051698;28;20201;-71
2022/01/03 10:32:29;;;;;;;4.43;2.47;;;10.70;99.90;;;;;;5051308;28;20251;-71
2022/01/03 10:34:57;;;;;;;6.18;2.08;;;10.70;99.90;;;;;;5051512;28;20228;-70
2022/01/03 10:37:35;;;;;;;4.22;1.88;;;10.70;99.90;;;;;;5051580;28;20254;-70
2022/01/03 10:40:17;;;;;;;5.00;1.45;;;10.70;99.90;;;;;;5051684;28;20204;-71
2022/01/03 10:42:44;;;;;;;4.57;2.00;;;10.60;99.90;;;;;;5050834;28;20193;-71
2022/01/03 10:45:10;;;;;;;3.03;1.70;;;10.60;99.90;;;;;;5051502;28;20276;-71
2022/01/03 10:47:41;;;;;;;4.53;1.92;;;10.60;99.90;;;;;;5051312;28;20636;-70
2022/01/03 10:50:15;;;;;;;3.20;2.20;;;10.60;99.90;;;;;;5051476;28;20197;-70
2022/01/03 10:52:43;;;;;;;4.45;2.22;;;10.60;99.90;;;;;;5050672;28;20227;-71
2022/01/03 10:55:16;;;;;;;6.75;2.08;;;10.70;99.90;;;;;;5051291;28;20224;-71
2022/01/03 10:57:47;;;;;;;4.88;1.92;;;10.70;99.90;;;;;;5050852;28;20204;-71
2022/01/03 11:00:15;;;;;;;4.28;1.58;;;10.70;99.90;;;;;;5051108;28;20201;-71
2022/01/03 11:03:06;;;;;;;6.70;2.05;;;10.70;99.90;;;;;;5050590;28;20193;-70
2022/01/03 11:05:42;;;;;;;4.47;1.90;;;10.80;99.90;;;;;;5051298;28;20207;-72
2022/01/03 11:10:54;;;;;;;2.95;1.70;;;10.80;99.90;;;;;;5050552;28;20204;-71
2022/01/03 11:13:22;;;;;;;5.65;1.80;;;10.80;99.90;;;;;;5050838;28;20294;-71
2022/01/03 11:15:52;;;;;;;3.60;1.80;;;10.90;99.90;;;;;;5050770;28;20266;-70
2022/01/03 11:18:24;;;;;;;3.03;1.58;;;10.90;99.90;;;;;;5050333;28;20208;-71
2022/01/03 11:21:04;;;;;;;5.13;2.10;;;10.90;99.90;;;;;;5050689;28;20211;-71
2022/01/03 11:23:32;;;;;;;4.28;2.25;;;11.00;99.90;;;;;;5050971;28;20724;-71
2022/01/03 11:26:04;;;;;;;3.38;1.92;;;11.10;99.90;;;;;;5050754;28;20201;-71
2022/01/03 11:28:31;;;;;;;7.43;2.10;;;11.10;99.90;;;;;;5050436;28;20672;-71
2022/01/03 11:31:00;;;;;;;5.38;2.10;;;11.10;99.90;;;;;;5050547;28;20201;-70
2022/01/03 11:33:28;;;;;;;3.45;2.00;;;11.20;99.90;;;;;;5050467;28;20260;-71
2022/01/03 11:35:57;;;;;;;4.38;1.65;;;11.20;99.90;;;;;;5050623;28;20730;-71
2022/01/03 11:38:26;;;;;;;3.80;1.75;;;11.20;99.90;;;;;;5050686;28;20577;-71
2022/01/03 11:40:54;;;;;;;3.42;1.92;;;11.20;99.90;;;;;;5050767;28;20235;-70
2022/01/03 11:43:21;;;;;;;3.35;1.73;;;11.20;99.90;;;;;;5050403;28;20759;-70
2022/01/03 11:45:49;;;;;;;3.30;1.58;;;11.20;99.90;;;;;;5050412;28;20236;-71
2022/01/03 11:48:15;;;;;;;5.07;1.70;;;11.30;99.90;;;;;;5049750;28;20650;-71
2022/01/03 11:50:44;;;;;;;5.60;2.03;;;11.30;99.90;;;;;;5050473;28;20204;-70
2022/01/03 11:53:12;;;;;;;5.40;1.80;;;11.30;99.90;;;;;;5050161;28;20600;-71
2022/01/03 11:55:40;;;;;;;2.78;1.40;;;11.40;99.90;;;;;;5050515;28;20698;-71
2022/01/03 11:58:28;;;;;;;4.80;2.17;;;11.40;99.90;;;;;;5050578;28;20212;-70
2022/01/03 12:03:49;;;;;;;4.07;1.65;;;11.40;99.90;;;;;;5050292;28;20359;-71
2022/01/03 12:06:26;;;;;;;3.75;1.80;;;11.40;99.90;;;;;;5050375;28;20209;-72
2022/01/03 12:08:58;;;;;;;2.20;1.50;;;11.30;99.90;;;;;;5050192;28;20201;-71
2022/01/03 12:11:27;;;;;;;5.63;1.60;;;11.30;99.90;;;;;;5049586;28;20571;-71
2022/01/03 12:13:56;;;;;;;3.90;1.70;;;11.30;99.90;;;;;;5049684;28;20229;-72
2022/01/03 12:16:44;;;;;;;3.20;1.80;;;11.30;99.90;;;;;;5050421;28;20609;-71
2022/01/03 12:19:13;;;;;;;6.45;1.77;;;11.20;99.90;;;;;;5050304;28;20205;-70
2022/01/03 12:21:56;;;;;;;2.42;1.70;;;11.10;99.90;;;;;;5049748;28;20259;-70
2022/01/03 12:24:53;;;;;;;6.20;2.22;;;11.10;99.90;;;;;;5050286;28;20221;-70
2022/01/03 12:27:42;;;;;;;2.42;1.60;;;11.10;99.90;;;;;;5050010;28;20201;-70
2022/01/03 12:30:28;;;;;;;2.17;1.20;;;11.10;99.90;;;;;;5051098;28;20263;-70
2022/01/03 12:33:16;;;;;;;2.95;1.50;;;11.10;99.90;;;;;;5053333;28;20221;-70
2022/01/03 12:35:45;;;;;;;2.10;1.30;;;11.00;99.90;;;;;;5054119;28;20755;-70
2022/01/03 12:38:27;;;;;;;2.88;1.40;;;11.10;99.90;;;;;;5054052;28;20204;-70
2022/01/03 12:40:59;;;;;;;2.72;1.55;;;11.10;99.90;;;;;;5053610;28;20593;-71
2022/01/03 12:43:43;;;;;;;5.00;2.08;;;11.20;99.90;;;;;;5053850;28;20279;-70
2022/01/03 12:46:24;;;;;;;2.40;1.38;;;11.20;99.90;;;;;;5054007;28;20676;-69
2022/01/03 12:48:52;;;;;;;3.55;2.10;;;11.20;99.90;;;;;;5053460;28;20687;-70
2022/01/03 12:51:19;;;;;;;2.80;2.00;;;11.20;99.90;;;;;;5053279;28;20251;-71
2022/01/03 12:53:50;;;;;;;4.72;1.52;;;11.20;99.90;;;;;;5053681;28;20232;-70
2022/01/03 12:56:19;;;;;;;4.38;1.60;;;11.10;99.90;;;;;;5053700;28;20233;-70
2022/01/03 12:58:47;;;;;;;2.95;1.92;;;11.10;99.90;;;;;;5053559;28;20201;-70
2022/01/03 13:01:30;;;;;;;2.60;1.50;;;11.10;99.90;;;;;;5052824;28;20588;-70
2022/01/03 13:04:15;;;;;;;4.20;1.63;;;11.20;99.90;;;;;;5053733;28;20267;-70
2022/01/03 13:06:43;;;;;;;4.57;2.00;;;11.30;99.90;;;;;;5053398;28;20205;-71
2022/01/03 13:09:13;;;;;;;1.90;1.60;;;11.30;99.90;;;;;;5053517;28;20235;-70
2022/01/03 13:11:43;;;;;;;4.75;1.40;;;11.30;99.90;;;;;;5052932;28;20572;-70
2022/01/03 13:14:14;;;;;;;2.55;1.90;;;11.30;99.90;;;;;;5053719;28;20696;-70
2022/01/03 13:16:43;;;;;;;3.20;1.50;;;11.40;99.90;;;;;;5053799;28;20668;-71
2022/01/03 13:19:12;;;;;;;2.85;1.70;;;11.40;99.90;;;;;;5053218;28;20205;-70
2022/01/03 13:21:42;;;;;;;2.50;1.30;;;11.40;99.90;;;;;;5052725;28;20266;-70
2022/01/03 13:24:14;;;;;;;5.78;2.03;;;11.40;99.90;;;;;;5052917;28;20214;-70
2022/01/03 13:26:56;;;;;;;2.60;1.70;;;11.50;99.90;;;;;;5053036;28;20221;-70
2022/01/03 13:29:23;;;;;;;2.63;1.50;;;11.40;99.90;;;;;;5053195;28;20232;-70
2022/01/03 13:31:50;;;;;;;3.30;1.90;;;11.40;99.90;;;;;;5052299;28;20205;-70
2022/01/03 13:34:21;;;;;;;2.88;1.48;;;11.40;99.90;;;;;;5052891;28;20229;-70
2022/01/03 13:36:47;;;;;;;3.58;1.75;;;11.50;99.90;;;;;;5052715;28;20337;-70
2022/01/03 13:39:18;;;;;;;4.18;1.80;;;11.50;99.90;;;;;;5052527;28;20200;-70
2022/01/03 13:41:47;;;;;;;4.45;1.70;;;11.50;99.90;;;;;;5051909;28;20208;-70
2022/01/03 13:44:25;;;;;;;5.10;1.98;;;11.50;99.90;;;;;;5052378;28;20221;-70
2022/01/03 13:49:43;;;;;;;2.80;1.90;;;11.40;99.90;;;;;;5052686;28;20192;-70
2022/01/03 13:52:10;;;;;;;3.97;1.70;;;11.30;99.90;;;;;;5052123;28;20639;-71
2022/01/03 13:54:40;;;;;;;4.80;2.00;;;11.40;99.90;;;;;;5052341;28;20569;-70
2022/01/03 13:57:08;;;;;;;2.38;1.55;;;11.40;99.90;;;;;;5052246;28;20201;-70
2022/01/03 13:59:38;;;;;;;5.22;2.20;;;11.40;99.90;;;;;;5052406;28;20196;-70
2022/01/03 14:02:06;;;;;;;3.65;2.03;;;11.40;99.90;;;;;;5051492;28;20209;-70
2022/01/03 14:04:34;;;;;;;4.00;1.75;;;11.40;99.90;;;;;;5052357;28;20271;-70
2022/01/03 14:07:07;;;;;;;2.00;1.50;;;11.30;99.90;;;;;;5051891;28;20198;-70
2022/01/03 14:09:43;;;;;;;3.85;2.25;;;11.20;99.90;;;;;;5052215;28;20231;-70
2022/01/03 14:12:12;;;;;;;3.70;1.35;;;11.20;99.90;;;;;;5051452;28;20203;-70
2022/01/03 14:14:40;;;;;;;2.47;1.48;;;11.10;99.90;;;;;;5052108;28;20291;-71
2022/01/03 14:17:08;;;;;;;3.72;1.50;;;11.10;99.90;;;;;;5051971;28;20595;-71
2022/01/03 14:19:36;;;;;;;3.15;1.60;;;11.10;99.90;;;;;;5052150;28;20574;-70
2022/01/03 14:22:11;;;;;;;4.00;1.42;;;11.00;99.90;;;;;;5051143;28;20758;-70